sensor_id;sensor_type;location;lat;lon;timestamp;P1;durP1;ratioP1;P2;durP2;ratioP2
12816;SDS011;6473;51.552;6.716;2024-02-04T00:02:01;12.38;;;9.55;;
12816;SDS011;6473;51.552;6.716;2024-02-04T00:04:29;12.55;;;9.00;;
12816;SDS011;6473;51.552;6.716;2024-02-04T00:06:57;11.48;;;9.23;;
12816;SDS011;6473;51.552;6.716;2024-02-04T00:09:25;13.18;;;9.88;;
12816;SDS011;6473;51.552;6.716;2024-02-04T00:11:55;12.50;;;8.80;;
12816;SDS011;6473;51.552;6.716;2024-02-04T00:14:23;10.65;;;8.13;;
12816;SDS011;6473;51.552;6.716;2024-02-04T00:16:51;9.30;;;7.38;;
12816;SDS011;6473;51.552;6.716;2024-02-04T00:19:18;10.63;;;6.82;;
12816;SDS011;6473;51.552;6.716;2024-02-04T00:21:45;8.18;;;6.82;;
12816;SDS011;6473;51.552;6.716;2024-02-04T00:24:13;7.25;;;5.90;;
12816;SDS011;6473;51.552;6.716;2024-02-04T00:26:40;7.43;;;6.05;;
12816;SDS011;6473;51.552;6.716;2024-02-04T00:29:08;7.60;;;5.50;;
12816;SDS011;6473;51.552;6.716;2024-02-04T00:31:35;6.97;;;5.20;;
12816;SDS011;6473;51.552;6.716;2024-02-04T00:34:03;6.30;;;5.53;;
12816;SDS011;6473;51.552;6.716;2024-02-04T00:36:31;5.03;;;4.40;;
12816;SDS011;6473;51.552;6.716;2024-02-04T00:38:58;5.60;;;5.00;;
12816;SDS011;6473;51.552;6.716;2024-02-04T00:41:25;5.18;;;4.45;;
12816;SDS011;6473;51.552;6.716;2024-02-04T00:43:52;4.93;;;4.38;;
12816;SDS011;6473;51.552;6.716;2024-02-04T00:46:21;5.40;;;4.40;;
12816;SDS011;6473;51.552;6.716;2024-02-04T00:48:48;6.65;;;4.38;;
12816;SDS011;6473;51.552;6.716;2024-02-04T00:51:15;5.63;;;4.78;;
12816;SDS011;6473;51.552;6.716;2024-02-04T00:53:42;5.25;;;4.32;;
12816;SDS011;6473;51.552;6.716;2024-02-04T00:56:10;5.38;;;4.60;;
12816;SDS011;6473;51.552;6.716;2024-02-04T00:58:37;6.40;;;4.63;;
12816;SDS011;6473;51.552;6.716;2024-02-04T01:01:04;7.95;;;5.38;;
12816;SDS011;6473;51.552;6.716;2024-02-04T01:03:33;6.28;;;5.32;;
12816;SDS011;6473;51.552;6.716;2024-02-04T01:06:00;6.28;;;5.55;;
12816;SDS011;6473;51.552;6.716;2024-02-04T01:08:27;6.18;;;5.57;;
12816;SDS011;6473;51.552;6.716;2024-02-04T01:10:55;7.47;;;5.32;;
12816;SDS011;6473;51.552;6.716;2024-02-04T01:13:22;8.10;;;5.88;;
12816;SDS011;6473;51.552;6.716;2024-02-04T01:15:49;6.65;;;5.47;;
12816;SDS011;6473;51.552;6.716;2024-02-04T01:18:16;7.60;;;6.13;;
12816;SDS011;6473;51.552;6.716;2024-02-04T01:20:45;8.00;;;5.80;;
12816;SDS011;6473;51.552;6.716;2024-02-04T01:23:12;7.43;;;5.63;;
12816;SDS011;6473;51.552;6.716;2024-02-04T01:25:42;7.30;;;5.80;;
12816;SDS011;6473;51.552;6.716;2024-02-04T01:28:09;8.63;;;6.18;;
12816;SDS011;6473;51.552;6.716;2024-02-04T01:30:37;8.70;;;6.63;;
12816;SDS011;6473;51.552;6.716;2024-02-04T01:33:04;8.27;;;6.88;;
12816;SDS011;6473;51.552;6.716;2024-02-04T01:35:32;8.70;;;6.70;;
12816;SDS011;6473;51.552;6.716;2024-02-04T01:38:01;9.30;;;7.03;;
12816;SDS011;6473;51.552;6.716;2024-02-04T01:40:29;10.00;;;6.70;;
12816;SDS011;6473;51.552;6.716;2024-02-04T01:42:56;10.05;;;7.35;;
12816;SDS011;6473;51.552;6.716;2024-02-04T01:45:24;10.00;;;7.40;;
12816;SDS011;6473;51.552;6.716;2024-02-04T01:47:51;10.10;;;7.25;;
12816;SDS011;6473;51.552;6.716;2024-02-04T01:50:19;9.50;;;7.40;;
12816;SDS011;6473;51.552;6.716;2024-02-04T01:52:46;10.68;;;7.90;;
12816;SDS011;6473;51.552;6.716;2024-02-04T01:55:15;9.98;;;7.50;;
12816;SDS011;6473;51.552;6.716;2024-02-04T01:57:44;9.75;;;7.03;;
12816;SDS011;6473;51.552;6.716;2024-02-04T02:00:11;9.95;;;7.38;;
12816;SDS011;6473;51.552;6.716;2024-02-04T02:02:39;10.40;;;7.53;;
12816;SDS011;6473;51.552;6.716;2024-02-04T02:05:07;11.25;;;8.00;;
12816;SDS011;6473;51.552;6.716;2024-02-04T02:07:34;10.27;;;7.13;;
12816;SDS011;6473;51.552;6.716;2024-02-04T02:10:01;11.15;;;7.53;;
12816;SDS011;6473;51.552;6.716;2024-02-04T02:12:33;11.13;;;8.45;;
12816;SDS011;6473;51.552;6.716;2024-02-04T02:15:07;12.65;;;7.70;;
12816;SDS011;6473;51.552;6.716;2024-02-04T02:17:38;13.60;;;8.68;;
12816;SDS011;6473;51.552;6.716;2024-02-04T02:20:16;14.75;;;9.57;;
12816;SDS011;6473;51.552;6.716;2024-02-04T02:22:48;14.13;;;9.13;;
12816;SDS011;6473;51.552;6.716;2024-02-04T02:25:17;15.60;;;10.02;;
12816;SDS011;6473;51.552;6.716;2024-02-04T02:27:48;16.77;;;11.07;;
12816;SDS011;6473;51.552;6.716;2024-02-04T02:30:15;16.63;;;11.10;;
12816;SDS011;6473;51.552;6.716;2024-02-04T02:32:43;19.50;;;11.00;;
12816;SDS011;6473;51.552;6.716;2024-02-04T02:35:10;23.20;;;11.93;;
12816;SDS011;6473;51.552;6.716;2024-02-04T02:37:40;20.85;;;11.63;;
12816;SDS011;6473;51.552;6.716;2024-02-04T02:40:12;19.98;;;11.98;;
12816;SDS011;6473;51.552;6.716;2024-02-04T02:42:45;18.35;;;11.32;;
12816;SDS011;6473;51.552;6.716;2024-02-04T02:45:13;21.75;;;13.80;;
12816;SDS011;6473;51.552;6.716;2024-02-04T02:47:40;23.63;;;13.25;;
12816;SDS011;6473;51.552;6.716;2024-02-04T02:50:08;19.83;;;12.48;;
12816;SDS011;6473;51.552;6.716;2024-02-04T02:52:35;24.55;;;12.82;;
12816;SDS011;6473;51.552;6.716;2024-02-04T02:55:03;22.50;;;13.25;;
12816;SDS011;6473;51.552;6.716;2024-02-04T02:57:30;22.17;;;13.52;;
12816;SDS011;6473;51.552;6.716;2024-02-04T02:59:59;24.90;;;13.82;;
12816;SDS011;6473;51.552;6.716;2024-02-04T03:02:26;24.50;;;14.50;;
12816;SDS011;6473;51.552;6.716;2024-02-04T03:04:54;21.67;;;12.65;;
12816;SDS011;6473;51.552;6.716;2024-02-04T03:07:21;23.02;;;13.43;;
12816;SDS011;6473;51.552;6.716;2024-02-04T03:09:48;21.98;;;13.52;;
12816;SDS011;6473;51.552;6.716;2024-02-04T03:12:15;21.95;;;13.20;;
12816;SDS011;6473;51.552;6.716;2024-02-04T03:14:42;20.13;;;12.45;;
12816;SDS011;6473;51.552;6.716;2024-02-04T03:17:11;20.92;;;12.93;;
12816;SDS011;6473;51.552;6.716;2024-02-04T03:19:39;20.33;;;12.75;;
12816;SDS011;6473;51.552;6.716;2024-02-04T03:22:06;18.40;;;11.95;;
12816;SDS011;6473;51.552;6.716;2024-02-04T03:24:33;20.50;;;12.65;;
12816;SDS011;6473;51.552;6.716;2024-02-04T03:27:00;18.95;;;12.45;;
12816;SDS011;6473;51.552;6.716;2024-02-04T03:29:28;19.92;;;12.80;;
12816;SDS011;6473;51.552;6.716;2024-02-04T03:31:55;21.48;;;13.60;;
12816;SDS011;6473;51.552;6.716;2024-02-04T03:34:24;22.42;;;13.55;;
12816;SDS011;6473;51.552;6.716;2024-02-04T03:36:51;22.02;;;13.15;;
12816;SDS011;6473;51.552;6.716;2024-02-04T03:39:19;22.17;;;12.43;;
12816;SDS011;6473;51.552;6.716;2024-02-04T03:41:46;20.13;;;12.80;;
12816;SDS011;6473;51.552;6.716;2024-02-04T03:44:13;22.88;;;12.23;;
12816;SDS011;6473;51.552;6.716;2024-02-04T03:46:40;19.98;;;12.48;;
12816;SDS011;6473;51.552;6.716;2024-02-04T03:49:08;19.63;;;12.27;;
12816;SDS011;6473;51.552;6.716;2024-02-04T03:51:37;20.58;;;12.50;;
12816;SDS011;6473;51.552;6.716;2024-02-04T03:54:04;19.77;;;12.70;;
12816;SDS011;6473;51.552;6.716;2024-02-04T03:56:31;20.83;;;13.18;;
12816;SDS011;6473;51.552;6.716;2024-02-04T03:58:58;21.98;;;13.27;;
12816;SDS011;6473;51.552;6.716;2024-02-04T04:01:26;22.33;;;13.38;;
12816;SDS011;6473;51.552;6.716;2024-02-04T04:03:53;20.08;;;13.27;;
12816;SDS011;6473;51.552;6.716;2024-02-04T04:06:20;23.05;;;13.23;;
12816;SDS011;6473;51.552;6.716;2024-02-04T04:08:48;21.88;;;13.38;;
12816;SDS011;6473;51.552;6.716;2024-02-04T04:11:16;20.98;;;13.13;;
12816;SDS011;6473;51.552;6.716;2024-02-04T04:13:43;19.83;;;12.50;;
12816;SDS011;6473;51.552;6.716;2024-02-04T04:16:10;19.38;;;12.95;;
12816;SDS011;6473;51.552;6.716;2024-02-04T04:18:37;22.98;;;13.23;;
12816;SDS011;6473;51.552;6.716;2024-02-04T04:21:04;20.35;;;12.60;;
12816;SDS011;6473;51.552;6.716;2024-02-04T04:23:31;21.38;;;13.18;;
12816;SDS011;6473;51.552;6.716;2024-02-04T04:26:00;18.23;;;12.45;;
12816;SDS011;6473;51.552;6.716;2024-02-04T04:28:27;21.63;;;13.57;;
12816;SDS011;6473;51.552;6.716;2024-02-04T04:30:54;23.65;;;13.45;;
12816;SDS011;6473;51.552;6.716;2024-02-04T04:33:21;18.83;;;12.65;;
12816;SDS011;6473;51.552;6.716;2024-02-04T04:35:49;21.52;;;12.82;;
12816;SDS011;6473;51.552;6.716;2024-02-04T04:38:16;22.08;;;13.90;;
12816;SDS011;6473;51.552;6.716;2024-02-04T04:40:43;19.27;;;12.75;;
12816;SDS011;6473;51.552;6.716;2024-02-04T04:43:12;21.17;;;13.98;;
12816;SDS011;6473;51.552;6.716;2024-02-04T04:45:39;16.05;;;11.50;;
12816;SDS011;6473;51.552;6.716;2024-02-04T04:48:07;17.05;;;11.73;;
12816;SDS011;6473;51.552;6.716;2024-02-04T04:50:34;20.35;;;12.27;;
12816;SDS011;6473;51.552;6.716;2024-02-04T04:53:02;15.75;;;11.65;;
12816;SDS011;6473;51.552;6.716;2024-02-04T04:55:29;17.80;;;12.10;;
12816;SDS011;6473;51.552;6.716;2024-02-04T04:57:56;15.35;;;10.82;;
12816;SDS011;6473;51.552;6.716;2024-02-04T05:00:25;19.60;;;10.80;;
12816;SDS011;6473;51.552;6.716;2024-02-04T05:02:52;16.63;;;11.23;;
12816;SDS011;6473;51.552;6.716;2024-02-04T05:05:19;15.55;;;10.82;;
12816;SDS011;6473;51.552;6.716;2024-02-04T05:07:46;19.02;;;10.43;;
12816;SDS011;6473;51.552;6.716;2024-02-04T05:10:13;14.77;;;10.98;;
12816;SDS011;6473;51.552;6.716;2024-02-04T05:12:40;12.52;;;10.13;;
12816;SDS011;6473;51.552;6.716;2024-02-04T05:15:08;15.65;;;10.40;;
12816;SDS011;6473;51.552;6.716;2024-02-04T05:17:36;16.50;;;10.18;;
12816;SDS011;6473;51.552;6.716;2024-02-04T05:20:04;14.32;;;9.80;;
12816;SDS011;6473;51.552;6.716;2024-02-04T05:22:32;16.30;;;9.75;;
12816;SDS011;6473;51.552;6.716;2024-02-04T05:24:59;16.45;;;10.18;;
12816;SDS011;6473;51.552;6.716;2024-02-04T05:27:27;16.48;;;11.27;;
12816;SDS011;6473;51.552;6.716;2024-02-04T05:29:54;14.75;;;9.45;;
12816;SDS011;6473;51.552;6.716;2024-02-04T05:32:21;17.02;;;10.15;;
12816;SDS011;6473;51.552;6.716;2024-02-04T05:34:49;14.50;;;10.50;;
12816;SDS011;6473;51.552;6.716;2024-02-04T05:37:16;13.43;;;10.05;;
12816;SDS011;6473;51.552;6.716;2024-02-04T05:39:44;14.95;;;10.45;;
12816;SDS011;6473;51.552;6.716;2024-02-04T05:42:11;15.20;;;10.73;;
12816;SDS011;6473;51.552;6.716;2024-02-04T05:44:38;15.18;;;10.52;;
12816;SDS011;6473;51.552;6.716;2024-02-04T05:47:05;15.88;;;10.07;;
12816;SDS011;6473;51.552;6.716;2024-02-04T05:49:33;15.07;;;10.60;;
12816;SDS011;6473;51.552;6.716;2024-02-04T05:52:01;15.35;;;9.85;;
12816;SDS011;6473;51.552;6.716;2024-02-04T05:54:28;19.00;;;11.07;;
12816;SDS011;6473;51.552;6.716;2024-02-04T05:56:55;19.33;;;11.30;;
12816;SDS011;6473;51.552;6.716;2024-02-04T05:59:22;15.15;;;10.02;;
12816;SDS011;6473;51.552;6.716;2024-02-04T06:01:49;17.52;;;10.48;;
12816;SDS011;6473;51.552;6.716;2024-02-04T06:04:17;17.85;;;10.38;;
12816;SDS011;6473;51.552;6.716;2024-02-04T06:06:44;16.33;;;10.10;;
12816;SDS011;6473;51.552;6.716;2024-02-04T06:09:12;15.57;;;10.57;;
12816;SDS011;6473;51.552;6.716;2024-02-04T06:11:40;15.43;;;9.73;;
12816;SDS011;6473;51.552;6.716;2024-02-04T06:14:07;13.85;;;9.25;;
12816;SDS011;6473;51.552;6.716;2024-02-04T06:16:34;19.95;;;10.32;;
12816;SDS011;6473;51.552;6.716;2024-02-04T06:19:01;13.77;;;10.10;;
12816;SDS011;6473;51.552;6.716;2024-02-04T06:21:29;18.75;;;10.43;;
12816;SDS011;6473;51.552;6.716;2024-02-04T06:23:56;18.35;;;10.63;;
12816;SDS011;6473;51.552;6.716;2024-02-04T06:26:24;17.65;;;11.75;;
12816;SDS011;6473;51.552;6.716;2024-02-04T06:28:51;17.85;;;11.48;;
12816;SDS011;6473;51.552;6.716;2024-02-04T06:31:18;18.08;;;11.82;;
12816;SDS011;6473;51.552;6.716;2024-02-04T06:33:45;18.65;;;12.32;;
12816;SDS011;6473;51.552;6.716;2024-02-04T06:36:12;21.30;;;13.23;;
12816;SDS011;6473;51.552;6.716;2024-02-04T06:38:40;19.92;;;13.43;;
12816;SDS011;6473;51.552;6.716;2024-02-04T06:41:06;20.80;;;13.75;;
12816;SDS011;6473;51.552;6.716;2024-02-04T06:43:36;21.55;;;14.05;;
12816;SDS011;6473;51.552;6.716;2024-02-04T06:46:03;20.77;;;15.38;;
12816;SDS011;6473;51.552;6.716;2024-02-04T06:48:30;22.15;;;13.63;;
12816;SDS011;6473;51.552;6.716;2024-02-04T06:51:00;23.02;;;13.98;;
12816;SDS011;6473;51.552;6.716;2024-02-04T06:53:27;23.98;;;14.70;;
12816;SDS011;6473;51.552;6.716;2024-02-04T06:55:54;22.83;;;14.77;;
12816;SDS011;6473;51.552;6.716;2024-02-04T06:58:21;21.67;;;13.73;;
12816;SDS011;6473;51.552;6.716;2024-02-04T07:00:50;22.92;;;13.70;;
12816;SDS011;6473;51.552;6.716;2024-02-04T07:03:17;24.35;;;13.65;;
12816;SDS011;6473;51.552;6.716;2024-02-04T07:05:44;27.27;;;14.63;;
12816;SDS011;6473;51.552;6.716;2024-02-04T07:08:12;22.58;;;12.75;;
12816;SDS011;6473;51.552;6.716;2024-02-04T07:10:39;23.73;;;14.38;;
12816;SDS011;6473;51.552;6.716;2024-02-04T07:13:06;23.65;;;13.80;;
12816;SDS011;6473;51.552;6.716;2024-02-04T07:15:36;25.77;;;14.57;;
12816;SDS011;6473;51.552;6.716;2024-02-04T07:18:05;26.15;;;14.90;;
12816;SDS011;6473;51.552;6.716;2024-02-04T07:20:32;21.55;;;13.13;;
12816;SDS011;6473;51.552;6.716;2024-02-04T07:22:59;20.90;;;14.20;;
12816;SDS011;6473;51.552;6.716;2024-02-04T07:25:27;27.30;;;14.27;;
12816;SDS011;6473;51.552;6.716;2024-02-04T07:27:54;21.52;;;13.20;;
12816;SDS011;6473;51.552;6.716;2024-02-04T07:30:22;20.35;;;12.95;;
12816;SDS011;6473;51.552;6.716;2024-02-04T07:32:49;22.08;;;13.07;;
12816;SDS011;6473;51.552;6.716;2024-02-04T07:35:18;21.58;;;13.43;;
12816;SDS011;6473;51.552;6.716;2024-02-04T07:37:45;18.02;;;11.57;;
12816;SDS011;6473;51.552;6.716;2024-02-04T07:40:12;18.77;;;13.00;;
12816;SDS011;6473;51.552;6.716;2024-02-04T07:42:39;18.25;;;12.15;;
12816;SDS011;6473;51.552;6.716;2024-02-04T07:45:07;18.33;;;11.55;;
12816;SDS011;6473;51.552;6.716;2024-02-04T07:47:35;16.75;;;11.70;;
12816;SDS011;6473;51.552;6.716;2024-02-04T07:50:02;16.92;;;10.52;;
12816;SDS011;6473;51.552;6.716;2024-02-04T07:52:30;18.00;;;10.82;;
12816;SDS011;6473;51.552;6.716;2024-02-04T07:54:58;12.55;;;9.25;;
12816;SDS011;6473;51.552;6.716;2024-02-04T07:57:24;13.85;;;9.05;;
12816;SDS011;6473;51.552;6.716;2024-02-04T07:59:52;15.32;;;9.07;;
12816;SDS011;6473;51.552;6.716;2024-02-04T08:02:19;13.00;;;8.27;;
12816;SDS011;6473;51.552;6.716;2024-02-04T08:04:46;11.10;;;8.05;;
12816;SDS011;6473;51.552;6.716;2024-02-04T08:07:13;13.05;;;7.43;;
12816;SDS011;6473;51.552;6.716;2024-02-04T08:09:43;11.38;;;6.93;;
12816;SDS011;6473;51.552;6.716;2024-02-04T08:12:11;8.68;;;6.55;;
12816;SDS011;6473;51.552;6.716;2024-02-04T08:14:38;9.98;;;6.25;;
12816;SDS011;6473;51.552;6.716;2024-02-04T08:17:05;7.78;;;5.60;;
12816;SDS011;6473;51.552;6.716;2024-02-04T08:19:33;6.20;;;4.50;;
12816;SDS011;6473;51.552;6.716;2024-02-04T08:22:00;6.32;;;4.20;;
12816;SDS011;6473;51.552;6.716;2024-02-04T08:24:27;6.63;;;4.68;;
12816;SDS011;6473;51.552;6.716;2024-02-04T08:26:58;4.70;;;4.18;;
12816;SDS011;6473;51.552;6.716;2024-02-04T08:29:25;7.70;;;4.70;;
12816;SDS011;6473;51.552;6.716;2024-02-04T08:37:16;6.68;;;5.25;;
12816;SDS011;6473;51.552;6.716;2024-02-04T08:39:45;5.60;;;5.03;;
12816;SDS011;6473;51.552;6.716;2024-02-04T08:42:13;6.63;;;4.93;;
12816;SDS011;6473;51.552;6.716;2024-02-04T08:44:41;6.75;;;4.72;;
12816;SDS011;6473;51.552;6.716;2024-02-04T08:47:07;6.78;;;5.47;;
12816;SDS011;6473;51.552;6.716;2024-02-04T08:49:37;7.18;;;5.10;;
12816;SDS011;6473;51.552;6.716;2024-02-04T08:52:05;6.72;;;5.28;;
12816;SDS011;6473;51.552;6.716;2024-02-04T08:54:32;7.72;;;5.25;;
12816;SDS011;6473;51.552;6.716;2024-02-04T08:56:59;7.38;;;5.43;;
12816;SDS011;6473;51.552;6.716;2024-02-04T08:59:27;6.18;;;5.50;;
12816;SDS011;6473;51.552;6.716;2024-02-04T09:01:54;7.03;;;5.57;;
12816;SDS011;6473;51.552;6.716;2024-02-04T09:04:21;8.55;;;6.60;;
12816;SDS011;6473;51.552;6.716;2024-02-04T09:06:48;8.75;;;6.13;;
12816;SDS011;6473;51.552;6.716;2024-02-04T09:09:15;8.93;;;6.38;;
12816;SDS011;6473;51.552;6.716;2024-02-04T09:11:42;8.75;;;6.40;;
12816;SDS011;6473;51.552;6.716;2024-02-04T09:14:09;10.77;;;6.82;;
12816;SDS011;6473;51.552;6.716;2024-02-04T09:16:38;10.48;;;7.95;;
12816;SDS011;6473;51.552;6.716;2024-02-04T09:19:05;12.05;;;9.05;;
12816;SDS011;6473;51.552;6.716;2024-02-04T09:21:32;12.20;;;9.65;;
12816;SDS011;6473;51.552;6.716;2024-02-04T09:24:00;14.32;;;9.40;;
12816;SDS011;6473;51.552;6.716;2024-02-04T09:26:27;13.70;;;9.05;;
12816;SDS011;6473;51.552;6.716;2024-02-04T09:28:54;13.98;;;9.93;;
12816;SDS011;6473;51.552;6.716;2024-02-04T09:31:21;12.90;;;9.88;;
12816;SDS011;6473;51.552;6.716;2024-02-04T09:33:51;13.75;;;9.43;;
12816;SDS011;6473;51.552;6.716;2024-02-04T09:36:18;15.55;;;10.50;;
12816;SDS011;6473;51.552;6.716;2024-02-04T09:38:47;15.40;;;9.00;;
12816;SDS011;6473;51.552;6.716;2024-02-04T09:41:14;15.13;;;9.25;;
12816;SDS011;6473;51.552;6.716;2024-02-04T09:43:41;13.95;;;9.35;;
12816;SDS011;6473;51.552;6.716;2024-02-04T09:46:10;13.00;;;9.52;;
12816;SDS011;6473;51.552;6.716;2024-02-04T09:48:37;13.43;;;8.27;;
12816;SDS011;6473;51.552;6.716;2024-02-04T09:51:06;12.07;;;8.77;;
12816;SDS011;6473;51.552;6.716;2024-02-04T09:53:33;13.27;;;8.02;;
12816;SDS011;6473;51.552;6.716;2024-02-04T09:56:01;10.38;;;8.45;;
12816;SDS011;6473;51.552;6.716;2024-02-04T09:58:28;11.80;;;7.75;;
12816;SDS011;6473;51.552;6.716;2024-02-04T10:00:55;9.10;;;7.57;;
12816;SDS011;6473;51.552;6.716;2024-02-04T10:03:23;10.25;;;7.28;;
12816;SDS011;6473;51.552;6.716;2024-02-04T10:05:50;14.98;;;7.38;;
12816;SDS011;6473;51.552;6.716;2024-02-04T10:08:19;8.70;;;6.57;;
12816;SDS011;6473;51.552;6.716;2024-02-04T10:10:46;12.05;;;6.50;;
12816;SDS011;6473;51.552;6.716;2024-02-04T10:13:14;9.82;;;6.38;;
12816;SDS011;6473;51.552;6.716;2024-02-04T10:15:41;9.65;;;6.88;;
12816;SDS011;6473;51.552;6.716;2024-02-04T10:18:07;10.95;;;6.63;;
12816;SDS011;6473;51.552;6.716;2024-02-04T10:20:35;9.75;;;6.57;;
12816;SDS011;6473;51.552;6.716;2024-02-04T10:23:02;10.95;;;7.35;;
12816;SDS011;6473;51.552;6.716;2024-02-04T10:25:31;15.10;;;8.00;;
12816;SDS011;6473;51.552;6.716;2024-02-04T10:27:58;13.57;;;8.60;;
12816;SDS011;6473;51.552;6.716;2024-02-04T10:30:25;12.75;;;8.18;;
12816;SDS011;6473;51.552;6.716;2024-02-04T10:38:48;12.02;;;8.60;;
12816;SDS011;6473;51.552;6.716;2024-02-04T10:41:17;13.85;;;8.68;;
12816;SDS011;6473;51.552;6.716;2024-02-04T10:43:44;12.10;;;8.50;;
12816;SDS011;6473;51.552;6.716;2024-02-04T10:46:12;15.13;;;9.20;;
12816;SDS011;6473;51.552;6.716;2024-02-04T10:48:41;14.57;;;9.48;;
12816;SDS011;6473;51.552;6.716;2024-02-04T10:51:11;11.32;;;8.30;;
12816;SDS011;6473;51.552;6.716;2024-02-04T10:53:41;9.70;;;8.20;;
12816;SDS011;6473;51.552;6.716;2024-02-04T10:56:11;9.60;;;7.15;;
12816;SDS011;6473;51.552;6.716;2024-02-04T10:58:46;9.15;;;6.50;;
12816;SDS011;6473;51.552;6.716;2024-02-04T11:01:14;8.10;;;6.05;;
12816;SDS011;6473;51.552;6.716;2024-02-04T11:03:41;7.78;;;6.05;;
12816;SDS011;6473;51.552;6.716;2024-02-04T11:06:09;9.02;;;7.28;;
12816;SDS011;6473;51.552;6.716;2024-02-04T11:08:37;7.50;;;6.30;;
12816;SDS011;6473;51.552;6.716;2024-02-04T11:11:05;9.15;;;6.03;;
12816;SDS011;6473;51.552;6.716;2024-02-04T11:13:32;6.80;;;5.43;;
12816;SDS011;6473;51.552;6.716;2024-02-04T11:16:03;7.18;;;5.20;;
12816;SDS011;6473;51.552;6.716;2024-02-04T11:18:35;7.47;;;4.82;;
12816;SDS011;6473;51.552;6.716;2024-02-04T11:21:25;5.00;;;4.25;;
12816;SDS011;6473;51.552;6.716;2024-02-04T11:23:59;5.13;;;4.07;;
12816;SDS011;6473;51.552;6.716;2024-02-04T11:26:31;5.13;;;4.15;;
12816;SDS011;6473;51.552;6.716;2024-02-04T11:29:00;4.32;;;3.75;;
12816;SDS011;6473;51.552;6.716;2024-02-04T11:31:29;5.45;;;3.85;;
12816;SDS011;6473;51.552;6.716;2024-02-04T11:36:38;4.35;;;3.58;;
12816;SDS011;6473;51.552;6.716;2024-02-04T11:39:11;6.00;;;3.85;;
12816;SDS011;6473;51.552;6.716;2024-02-04T11:41:44;3.65;;;3.30;;
12816;SDS011;6473;51.552;6.716;2024-02-04T11:44:12;3.70;;;3.15;;
12816;SDS011;6473;51.552;6.716;2024-02-04T11:46:46;3.78;;;2.97;;
12816;SDS011;6473;51.552;6.716;2024-02-04T11:49:16;3.72;;;3.15;;
12816;SDS011;6473;51.552;6.716;2024-02-04T11:51:45;3.67;;;3.22;;
12816;SDS011;6473;51.552;6.716;2024-02-04T11:54:14;4.72;;;2.90;;
12816;SDS011;6473;51.552;6.716;2024-02-04T11:56:42;4.05;;;3.28;;
12816;SDS011;6473;51.552;6.716;2024-02-04T11:59:10;3.30;;;2.65;;
12816;SDS011;6473;51.552;6.716;2024-02-04T12:01:39;3.40;;;3.10;;
12816;SDS011;6473;51.552;6.716;2024-02-04T12:04:11;2.85;;;2.55;;
12816;SDS011;6473;51.552;6.716;2024-02-04T12:06:39;3.35;;;2.80;;
12816;SDS011;6473;51.552;6.716;2024-02-04T12:09:07;4.00;;;3.60;;
12816;SDS011;6473;51.552;6.716;2024-02-04T12:11:35;3.90;;;3.10;;
12816;SDS011;6473;51.552;6.716;2024-02-04T12:14:03;4.50;;;3.60;;
12816;SDS011;6473;51.552;6.716;2024-02-04T12:16:31;5.35;;;3.60;;
12816;SDS011;6473;51.552;6.716;2024-02-04T12:19:00;5.43;;;3.80;;
12816;SDS011;6473;51.552;6.716;2024-02-04T12:21:30;4.47;;;3.88;;
12816;SDS011;6473;51.552;6.716;2024-02-04T12:23:57;5.07;;;3.88;;
12816;SDS011;6473;51.552;6.716;2024-02-04T12:26:24;4.70;;;3.80;;
12816;SDS011;6473;51.552;6.716;2024-02-04T12:28:51;5.50;;;4.47;;
12816;SDS011;6473;51.552;6.716;2024-02-04T12:31:20;4.45;;;3.60;;
12816;SDS011;6473;51.552;6.716;2024-02-04T12:33:52;4.05;;;3.40;;
12816;SDS011;6473;51.552;6.716;2024-02-04T12:36:20;4.35;;;3.95;;
12816;SDS011;6473;51.552;6.716;2024-02-04T12:38:53;4.53;;;3.45;;
12816;SDS011;6473;51.552;6.716;2024-02-04T12:41:21;4.70;;;3.72;;
12816;SDS011;6473;51.552;6.716;2024-02-04T12:43:52;4.10;;;3.63;;
12816;SDS011;6473;51.552;6.716;2024-02-04T12:46:19;4.63;;;4.20;;
12816;SDS011;6473;51.552;6.716;2024-02-04T12:48:50;5.40;;;4.28;;
12816;SDS011;6473;51.552;6.716;2024-02-04T12:51:23;5.28;;;4.47;;
12816;SDS011;6473;51.552;6.716;2024-02-04T12:53:50;5.65;;;4.20;;
12816;SDS011;6473;51.552;6.716;2024-02-04T12:56:19;5.28;;;3.92;;
12816;SDS011;6473;51.552;6.716;2024-02-04T12:58:46;4.90;;;4.20;;
12816;SDS011;6473;51.552;6.716;2024-02-04T13:01:13;5.88;;;4.30;;
12816;SDS011;6473;51.552;6.716;2024-02-04T13:03:41;6.68;;;4.57;;
12816;SDS011;6473;51.552;6.716;2024-02-04T13:06:08;5.40;;;4.22;;
12816;SDS011;6473;51.552;6.716;2024-02-04T13:08:35;5.18;;;4.68;;
12816;SDS011;6473;51.552;6.716;2024-02-04T13:11:03;6.35;;;4.40;;
12816;SDS011;6473;51.552;6.716;2024-02-04T13:13:31;5.95;;;4.18;;
12816;SDS011;6473;51.552;6.716;2024-02-04T13:15:58;5.25;;;4.53;;
12816;SDS011;6473;51.552;6.716;2024-02-04T13:18:25;5.30;;;4.38;;
12816;SDS011;6473;51.552;6.716;2024-02-04T13:20:53;6.70;;;4.72;;
12816;SDS011;6473;51.552;6.716;2024-02-04T13:23:20;7.10;;;4.78;;
12816;SDS011;6473;51.552;6.716;2024-02-04T13:26:00;6.18;;;4.75;;
12816;SDS011;6473;51.552;6.716;2024-02-04T13:28:27;6.50;;;5.07;;
12816;SDS011;6473;51.552;6.716;2024-02-04T13:30:56;6.82;;;4.50;;
12816;SDS011;6473;51.552;6.716;2024-02-04T13:33:27;6.05;;;5.13;;
12816;SDS011;6473;51.552;6.716;2024-02-04T13:35:54;7.38;;;4.82;;
12816;SDS011;6473;51.552;6.716;2024-02-04T13:38:21;6.47;;;4.95;;
12816;SDS011;6473;51.552;6.716;2024-02-04T13:40:48;8.25;;;5.03;;
12816;SDS011;6473;51.552;6.716;2024-02-04T13:43:15;7.75;;;5.30;;
12816;SDS011;6473;51.552;6.716;2024-02-04T13:45:43;7.78;;;6.13;;
12816;SDS011;6473;51.552;6.716;2024-02-04T13:48:11;7.82;;;6.20;;
12816;SDS011;6473;51.552;6.716;2024-02-04T13:50:38;9.10;;;6.35;;
12816;SDS011;6473;51.552;6.716;2024-02-04T13:53:05;8.10;;;6.55;;
12816;SDS011;6473;51.552;6.716;2024-02-04T13:55:33;7.90;;;6.70;;
12816;SDS011;6473;51.552;6.716;2024-02-04T13:58:07;11.02;;;5.90;;
12816;SDS011;6473;51.552;6.716;2024-02-04T14:00:34;6.78;;;5.80;;
12816;SDS011;6473;51.552;6.716;2024-02-04T14:03:02;7.85;;;5.95;;
12816;SDS011;6473;51.552;6.716;2024-02-04T14:05:32;7.78;;;5.80;;
12816;SDS011;6473;51.552;6.716;2024-02-04T14:07:59;7.90;;;5.95;;
12816;SDS011;6473;51.552;6.716;2024-02-04T14:10:26;7.07;;;5.60;;
12816;SDS011;6473;51.552;6.716;2024-02-04T14:12:53;6.90;;;5.80;;
12816;SDS011;6473;51.552;6.716;2024-02-04T14:15:20;7.80;;;6.30;;
12816;SDS011;6473;51.552;6.716;2024-02-04T14:17:48;7.88;;;6.03;;
12816;SDS011;6473;51.552;6.716;2024-02-04T14:20:15;8.02;;;5.53;;
12816;SDS011;6473;51.552;6.716;2024-02-04T14:22:44;6.55;;;5.57;;
12816;SDS011;6473;51.552;6.716;2024-02-04T14:25:12;8.80;;;6.32;;
12816;SDS011;6473;51.552;6.716;2024-02-04T14:27:39;7.10;;;6.18;;
12816;SDS011;6473;51.552;6.716;2024-02-04T14:30:06;7.82;;;5.90;;
12816;SDS011;6473;51.552;6.716;2024-02-04T14:35:16;8.23;;;6.90;;
12816;SDS011;6473;51.552;6.716;2024-02-04T14:37:44;9.40;;;7.40;;
12816;SDS011;6473;51.552;6.716;2024-02-04T14:40:12;11.63;;;9.02;;
12816;SDS011;6473;51.552;6.716;2024-02-04T14:42:39;11.73;;;8.43;;
12816;SDS011;6473;51.552;6.716;2024-02-04T14:45:07;12.30;;;9.40;;
12816;SDS011;6473;51.552;6.716;2024-02-04T14:47:35;11.82;;;9.65;;
12816;SDS011;6473;51.552;6.716;2024-02-04T14:50:03;12.68;;;9.93;;
12816;SDS011;6473;51.552;6.716;2024-02-04T14:52:30;14.50;;;9.50;;
12816;SDS011;6473;51.552;6.716;2024-02-04T14:54:58;12.82;;;9.18;;
12816;SDS011;6473;51.552;6.716;2024-02-04T14:57:26;11.30;;;8.73;;
12816;SDS011;6473;51.552;6.716;2024-02-04T14:59:54;11.20;;;8.60;;
12816;SDS011;6473;51.552;6.716;2024-02-04T15:02:21;13.88;;;9.18;;
12816;SDS011;6473;51.552;6.716;2024-02-04T15:04:54;11.23;;;8.20;;
12816;SDS011;6473;51.552;6.716;2024-02-04T15:07:21;12.20;;;8.35;;
12816;SDS011;6473;51.552;6.716;2024-02-04T15:09:48;12.90;;;8.65;;